sensor_id;sensor_type;location;lat;lon;timestamp;temperature;humidity
14370;DHT22;7268;50.792;0.252;2023-08-12T00:02:12;16.30;99.90
14370;DHT22;7268;50.792;0.252;2023-08-12T00:04:39;16.30;99.90
14370;DHT22;7268;50.792;0.252;2023-08-12T00:07:06;16.30;99.90
14370;DHT22;7268;50.792;0.252;2023-08-12T00:09:32;16.20;99.90
14370;DHT22;7268;50.792;0.252;2023-08-12T00:11:59;16.20;99.90
14370;DHT22;7268;50.792;0.252;2023-08-12T00:14:26;16.20;99.90
14370;DHT22;7268;50.792;0.252;2023-08-12T00:16:53;16.10;99.90
14370;DHT22;7268;50.792;0.252;2023-08-12T00:19:20;16.10;99.90
14370;DHT22;7268;50.792;0.252;2023-08-12T00:21:47;16.10;99.90
14370;DHT22;7268;50.792;0.252;2023-08-12T00:24:14;16.10;99.90
14370;DHT22;7268;50.792;0.252;2023-08-12T00:26:40;16.10;99.90
14370;DHT22;7268;50.792;0.252;2023-08-12T00:29:07;16.00;99.90
14370;DHT22;7268;50.792;0.252;2023-08-12T00:31:34;16.00;99.90
14370;DHT22;7268;50.792;0.252;2023-08-12T00:34:01;16.10;99.90
14370;DHT22;7268;50.792;0.252;2023-08-12T00:36:28;16.10;99.90
14370;DHT22;7268;50.792;0.252;2023-08-12T00:38:55;16.10;99.90
14370;DHT22;7268;50.792;0.252;2023-08-12T00:41:22;16.10;99.90
14370;DHT22;7268;50.792;0.252;2023-08-12T00:43:49;16.20;99.90
14370;DHT22;7268;50.792;0.252;2023-08-12T00:46:16;16.20;99.90
14370;DHT22;7268;50.792;0.252;2023-08-12T00:48:44;16.10;99.90
14370;DHT22;7268;50.792;0.252;2023-08-12T00:51:10;16.10;99.90
14370;DHT22;7268;50.792;0.252;2023-08-12T00:53:38;16.10;99.90
14370;DHT22;7268;50.792;0.252;2023-08-12T00:56:05;16.10;99.90
14370;DHT22;7268;50.792;0.252;2023-08-12T00:58:32;16.10;99.90
14370;DHT22;7268;50.792;0.252;2023-08-12T01:01:00;16.10;99.90
14370;DHT22;7268;50.792;0.252;2023-08-12T01:03:30;16.00;99.90
14370;DHT22;7268;50.792;0.252;2023-08-12T01:05:57;16.00;99.90
14370;DHT22;7268;50.792;0.252;2023-08-12T01:08:28;16.00;99.90
14370;DHT22;7268;50.792;0.252;2023-08-12T01:16:44;16.00;99.90
14370;DHT22;7268;50.792;0.252;2023-08-12T01:19:40;16.00;99.90
14370;DHT22;7268;50.792;0.252;2023-08-12T01:22:10;16.00;99.90
14370;DHT22;7268;50.792;0.252;2023-08-12T01:24:40;16.00;99.90
14370;DHT22;7268;50.792;0.252;2023-08-12T01:27:09;16.00;99.90
14370;DHT22;7268;50.792;0.252;2023-08-12T01:29:49;16.00;99.90
14370;DHT22;7268;50.792;0.252;2023-08-12T01:32:25;16.10;99.90
14370;DHT22;7268;50.792;0.252;2023-08-12T01:35:06;16.10;99.90
14370;DHT22;7268;50.792;0.252;2023-08-12T01:37:36;16.10;99.90
14370;DHT22;7268;50.792;0.252;2023-08-12T01:40:04;16.10;99.90
14370;DHT22;7268;50.792;0.252;2023-08-12T01:42:34;16.10;99.90
14370;DHT22;7268;50.792;0.252;2023-08-12T01:45:02;16.10;99.90
14370;DHT22;7268;50.792;0.252;2023-08-12T01:47:29;16.10;99.90
14370;DHT22;7268;50.792;0.252;2023-08-12T01:49:56;16.10;99.90
14370;DHT22;7268;50.792;0.252;2023-08-12T01:52:23;16.10;99.90
14370;DHT22;7268;50.792;0.252;2023-08-12T01:54:50;16.00;99.90
14370;DHT22;7268;50.792;0.252;2023-08-12T01:57:17;16.00;99.90
14370;DHT22;7268;50.792;0.252;2023-08-12T01:59:44;16.00;99.90
14370;DHT22;7268;50.792;0.252;2023-08-12T02:02:11;16.00;99.90
14370;DHT22;7268;50.792;0.252;2023-08-12T02:04:40;16.00;99.90
14370;DHT22;7268;50.792;0.252;2023-08-12T02:07:07;16.00;99.90
14370;DHT22;7268;50.792;0.252;2023-08-12T02:09:33;16.00;99.90
14370;DHT22;7268;50.792;0.252;2023-08-12T02:12:00;16.00;99.90
14370;DHT22;7268;50.792;0.252;2023-08-12T02:14:27;16.00;99.90
14370;DHT22;7268;50.792;0.252;2023-08-12T02:16:54;16.00;99.90
14370;DHT22;7268;50.792;0.252;2023-08-12T02:19:21;16.00;99.90
14370;DHT22;7268;50.792;0.252;2023-08-12T02:21:48;16.00;99.90
14370;DHT22;7268;50.792;0.252;2023-08-12T02:24:15;16.00;99.90
14370;DHT22;7268;50.792;0.252;2023-08-12T02:26:41;16.00;99.90
14370;DHT22;7268;50.792;0.252;2023-08-12T02:29:08;16.00;99.90
14370;DHT22;7268;50.792;0.252;2023-08-12T02:31:35;16.00;99.90
14370;DHT22;7268;50.792;0.252;2023-08-12T02:34:02;16.00;99.90
14370;DHT22;7268;50.792;0.252;2023-08-12T02:36:30;16.00;99.90
14370;DHT22;7268;50.792;0.252;2023-08-12T02:38:57;16.00;99.90
14370;DHT22;7268;50.792;0.252;2023-08-12T02:41:24;16.00;99.90
14370;DHT22;7268;50.792;0.252;2023-08-12T02:43:51;16.00;99.90
14370;DHT22;7268;50.792;0.252;2023-08-12T02:46:18;16.00;99.90
14370;DHT22;7268;50.792;0.252;2023-08-12T02:48:45;15.90;99.90
14370;DHT22;7268;50.792;0.252;2023-08-12T02:51:14;15.90;99.90
14370;DHT22;7268;50.792;0.252;2023-08-12T02:53:41;15.90;99.90
14370;DHT22;7268;50.792;0.252;2023-08-12T02:56:08;16.00;99.90
14370;DHT22;7268;50.792;0.252;2023-08-12T02:58:35;15.90;99.90
14370;DHT22;7268;50.792;0.252;2023-08-12T03:01:02;15.90;99.90
14370;DHT22;7268;50.792;0.252;2023-08-12T03:03:30;15.90;99.90
14370;DHT22;7268;50.792;0.252;2023-08-12T03:05:57;15.90;99.90
14370;DHT22;7268;50.792;0.252;2023-08-12T03:08:24;15.80;99.90
14370;DHT22;7268;50.792;0.252;2023-08-12T03:11:01;15.80;99.90
14370;DHT22;7268;50.792;0.252;2023-08-12T03:13:28;15.80;99.90
14370;DHT22;7268;50.792;0.252;2023-08-12T03:15:55;15.90;99.90
14370;DHT22;7268;50.792;0.252;2023-08-12T03:18:22;15.90;99.90
14370;DHT22;7268;50.792;0.252;2023-08-12T03:20:49;15.90;99.90
14370;DHT22;7268;50.792;0.252;2023-08-12T03:23:16;15.80;99.90
14370;DHT22;7268;50.792;0.252;2023-08-12T03:25:43;15.80;99.90
14370;DHT22;7268;50.792;0.252;2023-08-12T03:28:10;15.80;99.90
14370;DHT22;7268;50.792;0.252;2023-08-12T03:30:37;15.80;99.90
14370;DHT22;7268;50.792;0.252;2023-08-12T03:33:04;15.80;99.90
14370;DHT22;7268;50.792;0.252;2023-08-12T03:35:31;15.80;99.90
14370;DHT22;7268;50.792;0.252;2023-08-12T03:37:58;15.90;99.90
14370;DHT22;7268;50.792;0.252;2023-08-12T03:40:25;15.90;99.90
14370;DHT22;7268;50.792;0.252;2023-08-12T03:42:52;15.90;99.90
14370;DHT22;7268;50.792;0.252;2023-08-12T03:45:18;15.90;99.90
14370;DHT22;7268;50.792;0.252;2023-08-12T03:47:45;15.90;99.90
14370;DHT22;7268;50.792;0.252;2023-08-12T03:50:12;15.90;99.90
14370;DHT22;7268;50.792;0.252;2023-08-12T03:52:39;15.90;99.90
14370;DHT22;7268;50.792;0.252;2023-08-12T03:55:06;15.80;99.90
14370;DHT22;7268;50.792;0.252;2023-08-12T03:57:33;15.80;99.90
14370;DHT22;7268;50.792;0.252;2023-08-12T04:00:00;15.80;99.90
14370;DHT22;7268;50.792;0.252;2023-08-12T04:02:27;15.80;99.90
14370;DHT22;7268;50.792;0.252;2023-08-12T04:04:54;15.80;99.90
14370;DHT22;7268;50.792;0.252;2023-08-12T04:07:21;15.80;99.90
14370;DHT22;7268;50.792;0.252;2023-08-12T04:09:49;15.80;99.90
14370;DHT22;7268;50.792;0.252;2023-08-12T04:12:16;15.70;99.90
14370;DHT22;7268;50.792;0.252;2023-08-12T04:14:43;15.70;99.90
14370;DHT22;7268;50.792;0.252;2023-08-12T04:17:10;15.70;99.90
14370;DHT22;7268;50.792;0.252;2023-08-12T04:19:37;15.70;99.90
14370;DHT22;7268;50.792;0.252;2023-08-12T04:22:04;15.60;99.90
14370;DHT22;7268;50.792;0.252;2023-08-12T04:24:31;15.60;99.90
14370;DHT22;7268;50.792;0.252;2023-08-12T04:26:58;15.60;99.90
14370;DHT22;7268;50.792;0.252;2023-08-12T04:29:24;15.60;99.90
14370;DHT22;7268;50.792;0.252;2023-08-12T04:31:51;15.60;99.90
14370;DHT22;7268;50.792;0.252;2023-08-12T04:34:19;15.60;99.90
14370;DHT22;7268;50.792;0.252;2023-08-12T04:36:46;15.60;99.90
14370;DHT22;7268;50.792;0.252;2023-08-12T04:39:13;15.60;99.90
14370;DHT22;7268;50.792;0.252;2023-08-12T04:41:39;15.60;99.90
14370;DHT22;7268;50.792;0.252;2023-08-12T04:44:06;15.70;99.90
14370;DHT22;7268;50.792;0.252;2023-08-12T04:46:33;15.70;99.90
14370;DHT22;7268;50.792;0.252;2023-08-12T04:49:00;15.70;99.90
14370;DHT22;7268;50.792;0.252;2023-08-12T04:51:27;15.70;99.90
14370;DHT22;7268;50.792;0.252;2023-08-12T04:53:54;15.70;99.90
14370;DHT22;7268;50.792;0.252;2023-08-12T04:56:21;15.60;99.90
14370;DHT22;7268;50.792;0.252;2023-08-12T04:58:48;15.60;99.90
14370;DHT22;7268;50.792;0.252;2023-08-12T05:01:15;15.50;99.90
14370;DHT22;7268;50.792;0.252;2023-08-12T05:03:41;15.50;99.90
14370;DHT22;7268;50.792;0.252;2023-08-12T05:06:08;15.50;99.90
14370;DHT22;7268;50.792;0.252;2023-08-12T05:08:35;15.50;99.90
14370;DHT22;7268;50.792;0.252;2023-08-12T05:11:02;15.50;99.90
14370;DHT22;7268;50.792;0.252;2023-08-12T05:13:29;15.60;99.90
14370;DHT22;7268;50.792;0.252;2023-08-12T05:15:58;15.60;99.90
14370;DHT22;7268;50.792;0.252;2023-08-12T05:18:34;15.70;99.90
14370;DHT22;7268;50.792;0.252;2023-08-12T05:21:11;15.70;99.90
14370;DHT22;7268;50.792;0.252;2023-08-12T05:23:44;15.80;99.90
14370;DHT22;7268;50.792;0.252;2023-08-12T05:26:12;15.80;99.90
14370;DHT22;7268;50.792;0.252;2023-08-12T05:28:40;15.90;99.90
14370;DHT22;7268;50.792;0.252;2023-08-12T05:31:08;15.90;99.90
14370;DHT22;7268;50.792;0.252;2023-08-12T05:33:35;16.00;99.90
14370;DHT22;7268;50.792;0.252;2023-08-12T05:36:02;16.00;99.90
14370;DHT22;7268;50.792;0.252;2023-08-12T05:38:33;16.00;99.90
14370;DHT22;7268;50.792;0.252;2023-08-12T05:41:07;16.10;99.90
14370;DHT22;7268;50.792;0.252;2023-08-12T05:43:39;16.20;99.90
14370;DHT22;7268;50.792;0.252;2023-08-12T05:46:13;16.20;99.90
14370;DHT22;7268;50.792;0.252;2023-08-12T05:48:47;16.30;99.90
14370;DHT22;7268;50.792;0.252;2023-08-12T05:51:18;16.40;99.90
14370;DHT22;7268;50.792;0.252;2023-08-12T05:53:49;16.50;99.90
14370;DHT22;7268;50.792;0.252;2023-08-12T05:56:21;16.50;99.90
14370;DHT22;7268;50.792;0.252;2023-08-12T05:58:52;16.50;99.90
14370;DHT22;7268;50.792;0.252;2023-08-12T06:01:22;16.50;99.90
14370;DHT22;7268;50.792;0.252;2023-08-12T06:03:56;16.60;99.90
14370;DHT22;7268;50.792;0.252;2023-08-12T06:06:28;16.60;99.90
14370;DHT22;7268;50.792;0.252;2023-08-12T06:08:58;16.70;99.90
14370;DHT22;7268;50.792;0.252;2023-08-12T06:11:30;17.30;99.90
14370;DHT22;7268;50.792;0.252;2023-08-12T06:13:58;18.00;99.90
14370;DHT22;7268;50.792;0.252;2023-08-12T06:16:29;18.50;99.90
14370;DHT22;7268;50.792;0.252;2023-08-12T06:19:01;18.80;99.90
14370;DHT22;7268;50.792;0.252;2023-08-12T06:21:28;19.60;99.90
14370;DHT22;7268;50.792;0.252;2023-08-12T06:23:55;20.40;99.90
14370;DHT22;7268;50.792;0.252;2023-08-12T06:26:22;21.10;98.60
14370;DHT22;7268;50.792;0.252;2023-08-12T06:28:49;21.40;98.30
14370;DHT22;7268;50.792;0.252;2023-08-12T06:31:16;21.70;96.80
14370;DHT22;7268;50.792;0.252;2023-08-12T06:33:43;21.60;97.00
14370;DHT22;7268;50.792;0.252;2023-08-12T06:36:11;21.80;97.10
14370;DHT22;7268;50.792;0.252;2023-08-12T06:38:37;22.40;96.60
14370;DHT22;7268;50.792;0.252;2023-08-12T06:41:04;22.30;95.60
14370;DHT22;7268;50.792;0.252;2023-08-12T06:43:31;22.80;94.60
14370;DHT22;7268;50.792;0.252;2023-08-12T06:45:58;23.70;92.80
14370;DHT22;7268;50.792;0.252;2023-08-12T06:48:25;23.40;93.00
14370;DHT22;7268;50.792;0.252;2023-08-12T06:50:55;22.90;93.70
14370;DHT22;7268;50.792;0.252;2023-08-12T06:53:24;23.00;94.20
14370;DHT22;7268;50.792;0.252;2023-08-12T06:55:51;23.40;93.20
14370;DHT22;7268;50.792;0.252;2023-08-12T06:58:18;23.90;91.60
14370;DHT22;7268;50.792;0.252;2023-08-12T07:00:44;23.40;92.00
14370;DHT22;7268;50.792;0.252;2023-08-12T07:03:11;23.20;93.00
14370;DHT22;7268;50.792;0.252;2023-08-12T07:05:39;23.80;92.00
14370;DHT22;7268;50.792;0.252;2023-08-12T07:08:05;24.60;90.30
14370;DHT22;7268;50.792;0.252;2023-08-12T07:10:32;23.90;91.40
14370;DHT22;7268;50.792;0.252;2023-08-12T07:12:59;22.50;94.30
14370;DHT22;7268;50.792;0.252;2023-08-12T07:15:26;21.10;96.30
14370;DHT22;7268;50.792;0.252;2023-08-12T07:17:54;21.30;97.90
14370;DHT22;7268;50.792;0.252;2023-08-12T07:20:21;22.10;95.40
14370;DHT22;7268;50.792;0.252;2023-08-12T07:22:48;22.30;95.20
14370;DHT22;7268;50.792;0.252;2023-08-12T07:25:15;23.00;94.20
14370;DHT22;7268;50.792;0.252;2023-08-12T07:27:42;24.20;91.40
14370;DHT22;7268;50.792;0.252;2023-08-12T07:30:09;24.30;91.00
14370;DHT22;7268;50.792;0.252;2023-08-12T07:32:36;25.60;88.40
14370;DHT22;7268;50.792;0.252;2023-08-12T07:35:04;25.60;88.10
14370;DHT22;7268;50.792;0.252;2023-08-12T07:37:32;24.10;91.00
14370;DHT22;7268;50.792;0.252;2023-08-12T07:39:59;22.50;94.60
14370;DHT22;7268;50.792;0.252;2023-08-12T07:42:26;23.00;93.70
14370;DHT22;7268;50.792;0.252;2023-08-12T07:44:53;22.40;94.30
14370;DHT22;7268;50.792;0.252;2023-08-12T07:47:20;22.90;94.20
14370;DHT22;7268;50.792;0.252;2023-08-12T07:49:47;23.30;92.60
14370;DHT22;7268;50.792;0.252;2023-08-12T07:52:14;24.20;92.60
14370;DHT22;7268;50.792;0.252;2023-08-12T07:54:41;24.70;90.70
14370;DHT22;7268;50.792;0.252;2023-08-12T07:57:08;23.10;93.90
14370;DHT22;7268;50.792;0.252;2023-08-12T07:59:34;23.60;94.20
14370;DHT22;7268;50.792;0.252;2023-08-12T08:02:01;23.50;92.90
14370;DHT22;7268;50.792;0.252;2023-08-12T08:04:29;22.40;94.60
14370;DHT22;7268;50.792;0.252;2023-08-12T08:06:55;21.00;97.00
14370;DHT22;7268;50.792;0.252;2023-08-12T08:09:22;21.00;98.00
14370;DHT22;7268;50.792;0.252;2023-08-12T08:11:49;20.50;97.90
14370;DHT22;7268;50.792;0.252;2023-08-12T08:14:16;19.80;99.90
14370;DHT22;7268;50.792;0.252;2023-08-12T08:16:43;20.60;99.80
14370;DHT22;7268;50.792;0.252;2023-08-12T08:19:10;21.10;98.00
14370;DHT22;7268;50.792;0.252;2023-08-12T08:21:39;21.00;98.80
14370;DHT22;7268;50.792;0.252;2023-08-12T08:24:06;20.80;98.80
14370;DHT22;7268;50.792;0.252;2023-08-12T08:26:35;20.50;98.80
14370;DHT22;7268;50.792;0.252;2023-08-12T08:29:02;20.50;99.20
14370;DHT22;7268;50.792;0.252;2023-08-12T08:31:29;20.80;98.80
14370;DHT22;7268;50.792;0.252;2023-08-12T08:33:56;20.70;98.60
14370;DHT22;7268;50.792;0.252;2023-08-12T08:36:23;20.20;99.90
14370;DHT22;7268;50.792;0.252;2023-08-12T08:38:50;20.90;98.30
14370;DHT22;7268;50.792;0.252;2023-08-12T08:41:17;21.20;98.00
14370;DHT22;7268;50.792;0.252;2023-08-12T08:43:46;21.90;96.00
14370;DHT22;7268;50.792;0.252;2023-08-12T08:46:17;22.30;96.00
14370;DHT22;7268;50.792;0.252;2023-08-12T08:48:44;23.40;94.10
14370;DHT22;7268;50.792;0.252;2023-08-12T08:51:12;24.50;92.50
14370;DHT22;7268;50.792;0.252;2023-08-12T08:53:40;24.80;90.10
14370;DHT22;7268;50.792;0.252;2023-08-12T08:56:08;25.10;89.50
14370;DHT22;7268;50.792;0.252;2023-08-12T08:58:40;25.60;88.80
14370;DHT22;7268;50.792;0.252;2023-08-12T09:01:07;24.60;90.60
14370;DHT22;7268;50.792;0.252;2023-08-12T09:03:36;24.60;90.80
14370;DHT22;7268;50.792;0.252;2023-08-12T09:06:04;23.20;93.40
14370;DHT22;7268;50.792;0.252;2023-08-12T09:08:32;22.90;95.00
14370;DHT22;7268;50.792;0.252;2023-08-12T09:11:00;24.60;92.00
14370;DHT22;7268;50.792;0.252;2023-08-12T09:13:29;24.00;92.10
14370;DHT22;7268;50.792;0.252;2023-08-12T09:15:56;22.40;93.90
14370;DHT22;7268;50.792;0.252;2023-08-12T09:18:23;22.40;95.10
14370;DHT22;7268;50.792;0.252;2023-08-12T09:20:51;23.20;94.10
14370;DHT22;7268;50.792;0.252;2023-08-12T09:23:18;24.60;91.50
14370;DHT22;7268;50.792;0.252;2023-08-12T09:25:45;24.50;91.00
14370;DHT22;7268;50.792;0.252;2023-08-12T09:28:13;24.40;90.80
14370;DHT22;7268;50.792;0.252;2023-08-12T09:30:40;25.20;90.20
14370;DHT22;7268;50.792;0.252;2023-08-12T09:33:08;25.40;89.40
14370;DHT22;7268;50.792;0.252;2023-08-12T09:35:37;24.10;90.50
14370;DHT22;7268;50.792;0.252;2023-08-12T09:38:11;24.50;90.70
14370;DHT22;7268;50.792;0.252;2023-08-12T09:40:39;23.40;92.60
14370;DHT22;7268;50.792;0.252;2023-08-12T09:43:07;22.90;93.60
14370;DHT22;7268;50.792;0.252;2023-08-12T09:45:35;23.10;93.10
14370;DHT22;7268;50.792;0.252;2023-08-12T09:48:03;23.10;92.50
14370;DHT22;7268;50.792;0.252;2023-08-12T09:50:30;21.80;94.80
14370;DHT22;7268;50.792;0.252;2023-08-12T09:52:57;22.20;95.30
14370;DHT22;7268;50.792;0.252;2023-08-12T09:55:24;22.90;93.90
14370;DHT22;7268;50.792;0.252;2023-08-12T09:57:53;23.80;92.70
14370;DHT22;7268;50.792;0.252;2023-08-12T10:00:22;23.90;92.60
14370;DHT22;7268;50.792;0.252;2023-08-12T10:02:51;23.90;92.80
14370;DHT22;7268;50.792;0.252;2023-08-12T10:05:27;23.30;92.90
14370;DHT22;7268;50.792;0.252;2023-08-12T10:07:55;22.80;94.30
14370;DHT22;7268;50.792;0.252;2023-08-12T10:10:22;22.60;94.20
14370;DHT22;7268;50.792;0.252;2023-08-12T10:12:50;23.90;92.50
14370;DHT22;7268;50.792;0.252;2023-08-12T10:15:17;24.50;92.20
14370;DHT22;7268;50.792;0.252;2023-08-12T10:17:44;24.30;91.30
14370;DHT22;7268;50.792;0.252;2023-08-12T10:20:20;24.00;92.20
14370;DHT22;7268;50.792;0.252;2023-08-12T10:22:49;23.30;92.50
14370;DHT22;7268;50.792;0.252;2023-08-12T10:25:18;22.90;92.80
14370;DHT22;7268;50.792;0.252;2023-08-12T10:27:45;22.60;94.90
14370;DHT22;7268;50.792;0.252;2023-08-12T10:30:13;23.10;93.70
14370;DHT22;7268;50.792;0.252;2023-08-12T10:32:41;24.00;91.80
14370;DHT22;7268;50.792;0.252;2023-08-12T10:35:08;23.70;91.70
14370;DHT22;7268;50.792;0.252;2023-08-12T10:37:35;23.30;92.60
14370;DHT22;7268;50.792;0.252;2023-08-12T10:40:04;22.70;94.30
14370;DHT22;7268;50.792;0.252;2023-08-12T10:42:45;22.70;94.20
14370;DHT22;7268;50.792;0.252;2023-08-12T10:45:14;22.50;94.90
14370;DHT22;7268;50.792;0.252;2023-08-12T10:47:49;21.80;96.00
14370;DHT22;7268;50.792;0.252;2023-08-12T10:50:20;21.60;96.20
14370;DHT22;7268;50.792;0.252;2023-08-12T10:52:51;21.70;97.30
14370;DHT22;7268;50.792;0.252;2023-08-12T10:55:23;21.90;95.90
14370;DHT22;7268;50.792;0.252;2023-08-12T10:57:52;22.60;96.50
14370;DHT22;7268;50.792;0.252;2023-08-12T11:00:26;22.40;93.80
14370;DHT22;7268;50.792;0.252;2023-08-12T11:02:57;21.40;95.90
14370;DHT22;7268;50.792;0.252;2023-08-12T11:05:25;22.10;96.30
14370;DHT22;7268;50.792;0.252;2023-08-12T11:08:02;22.10;95.40
14370;DHT22;7268;50.792;0.252;2023-08-12T11:10:34;22.60;95.80
14370;DHT22;7268;50.792;0.252;2023-08-12T11:13:02;23.00;94.00
14370;DHT22;7268;50.792;0.252;2023-08-12T11:15:37;23.10;93.10
14370;DHT22;7268;50.792;0.252;2023-08-12T11:18:06;22.00;94.80
14370;DHT22;7268;50.792;0.252;2023-08-12T11:20:34;22.30;95.80
14370;DHT22;7268;50.792;0.252;2023-08-12T11:23:03;23.20;94.40
14370;DHT22;7268;50.792;0.252;2023-08-12T11:25:31;23.30;93.80
14370;DHT22;7268;50.792;0.252;2023-08-12T11:27:58;23.20;93.00
14370;DHT22;7268;50.792;0.252;2023-08-12T11:30:26;22.70;93.90
14370;DHT22;7268;50.792;0.252;2023-08-12T11:32:57;21.80;95.70
14370;DHT22;7268;50.792;0.252;2023-08-12T11:35:25;21.50;95.50
14370;DHT22;7268;50.792;0.252;2023-08-12T11:37:53;21.90;95.70
14370;DHT22;7268;50.792;0.252;2023-08-12T11:40:23;22.40;95.40
14370;DHT22;7268;50.792;0.252;2023-08-12T11:42:52;23.20;94.10
14370;DHT22;7268;50.792;0.252;2023-08-12T11:45:21;23.20;93.10
14370;DHT22;7268;50.792;0.252;2023-08-12T11:47:49;23.10;94.40
14370;DHT22;7268;50.792;0.252;2023-08-12T11:50:24;23.50;93.30
14370;DHT22;7268;50.792;0.252;2023-08-12T11:52:52;22.90;93.90
14370;DHT22;7268;50.792;0.252;2023-08-12T11:55:20;22.70;95.10
14370;DHT22;7268;50.792;0.252;2023-08-12T11:57:47;22.30;95.50
14370;DHT22;7268;50.792;0.252;2023-08-12T12:00:14;21.80;96.50
14370;DHT22;7268;50.792;0.252;2023-08-12T12:02:53;21.80;96.40
14370;DHT22;7268;50.792;0.252;2023-08-12T12:05:26;21.50;98.00
14370;DHT22;7268;50.792;0.252;2023-08-12T12:07:53;22.00;96.50
14370;DHT22;7268;50.792;0.252;2023-08-12T12:10:31;23.10;95.10
14370;DHT22;7268;50.792;0.252;2023-08-12T12:13:02;23.00;93.60
14370;DHT22;7268;50.792;0.252;2023-08-12T12:15:30;21.40;97.50
14370;DHT22;7268;50.792;0.252;2023-08-12T12:17:58;20.10;99.90
14370;DHT22;7268;50.792;0.252;2023-08-12T12:20:25;19.70;99.90
14370;DHT22;7268;50.792;0.252;2023-08-12T12:22:54;19.60;99.90
14370;DHT22;7268;50.792;0.252;2023-08-12T12:25:22;19.30;99.90
14370;DHT22;7268;50.792;0.252;2023-08-12T12:27:49;19.60;99.90
14370;DHT22;7268;50.792;0.252;2023-08-12T12:30:16;19.60;99.90
14370;DHT22;7268;50.792;0.252;2023-08-12T12:32:44;19.50;99.90
14370;DHT22;7268;50.792;0.252;2023-08-12T12:35:12;19.30;99.90
14370;DHT22;7268;50.792;0.252;2023-08-12T12:37:39;19.80;99.90
14370;DHT22;7268;50.792;0.252;2023-08-12T12:40:07;20.30;99.80
14370;DHT22;7268;50.792;0.252;2023-08-12T12:42:34;21.00;99.80
14370;DHT22;7268;50.792;0.252;2023-08-12T12:45:01;21.10;99.60
14370;DHT22;7268;50.792;0.252;2023-08-12T12:47:28;21.00;99.60
14370;DHT22;7268;50.792;0.252;2023-08-12T12:49:55;20.70;99.90
14370;DHT22;7268;50.792;0.252;2023-08-12T12:52:22;20.70;99.90
14370;DHT22;7268;50.792;0.252;2023-08-12T12:54:49;20.70;99.90
14370;DHT22;7268;50.792;0.252;2023-08-12T12:57:16;21.20;99.90
14370;DHT22;7268;50.792;0.252;2023-08-12T12:59:43;21.70;99.20
14370;DHT22;7268;50.792;0.252;2023-08-12T13:02:10;21.50;98.80
14370;DHT22;7268;50.792;0.252;2023-08-12T13:04:37;21.20;99.00
14370;DHT22;7268;50.792;0.252;2023-08-12T13:07:04;21.30;99.00
14370;DHT22;7268;50.792;0.252;2023-08-12T13:09:31;21.20;98.60
14370;DHT22;7268;50.792;0.252;2023-08-12T13:11:58;21.30;98.90
14370;DHT22;7268;50.792;0.252;2023-08-12T13:14:25;21.20;98.80
14370;DHT22;7268;50.792;0.252;2023-08-12T13:16:52;21.40;98.80
14370;DHT22;7268;50.792;0.252;2023-08-12T13:19:19;21.40;98.60
14370;DHT22;7268;50.792;0.252;2023-08-12T13:21:46;21.40;97.90
14370;DHT22;7268;50.792;0.252;2023-08-12T13:24:13;21.70;98.30
14370;DHT22;7268;50.792;0.252;2023-08-12T13:26:40;21.70;97.90
14370;DHT22;7268;50.792;0.252;2023-08-12T13:29:07;21.90;98.10
14370;DHT22;7268;50.792;0.252;2023-08-12T13:31:34;22.00;98.40
14370;DHT22;7268;50.792;0.252;2023-08-12T13:34:01;21.50;98.80
14370;DHT22;7268;50.792;0.252;2023-08-12T13:36:28;21.30;98.30
14370;DHT22;7268;50.792;0.252;2023-08-12T13:38:56;21.10;99.20
14370;DHT22;7268;50.792;0.252;2023-08-12T13:41:26;20.90;99.50
14370;DHT22;7268;50.792;0.252;2023-08-12T13:43:53;20.80;99.90
14370;DHT22;7268;50.792;0.252;2023-08-12T13:46:20;20.70;99.60
14370;DHT22;7268;50.792;0.252;2023-08-12T13:48:47;21.00;99.40
14370;DHT22;7268;50.792;0.252;2023-08-12T13:51:13;20.50;99.90
14370;DHT22;7268;50.792;0.252;2023-08-12T13:53:40;20.70;99.90
14370;DHT22;7268;50.792;0.252;2023-08-12T13:56:07;20.90;99.00
14370;DHT22;7268;50.792;0.252;2023-08-12T13:58:34;21.10;99.20
14370;DHT22;7268;50.792;0.252;2023-08-12T14:01:01;21.20;98.70
14370;DHT22;7268;50.792;0.252;2023-08-12T14:03:29;20.70;98.50
14370;DHT22;7268;50.792;0.252;2023-08-12T14:05:57;20.50;99.40
14370;DHT22;7268;50.792;0.252;2023-08-12T14:08:24;20.50;99.80
14370;DHT22;7268;50.792;0.252;2023-08-12T14:10:51;20.90;99.30
14370;DHT22;7268;50.792;0.252;2023-08-12T14:13:18;21.00;99.20
14370;DHT22;7268;50.792;0.252;2023-08-12T14:15:45;20.90;99.10
14370;DHT22;7268;50.792;0.252;2023-08-12T14:18:12;20.80;99.90
14370;DHT22;7268;50.792;0.252;2023-08-12T14:20:39;20.70;99.60
14370;DHT22;7268;50.792;0.252;2023-08-12T14:23:06;20.90;99.60
14370;DHT22;7268;50.792;0.252;2023-08-12T14:25:32;21.20;99.30
14370;DHT22;7268;50.792;0.252;2023-08-12T14:27:59;21.40;98.20
14370;DHT22;7268;50.792;0.252;2023-08-12T14:30:26;21.40;98.60
14370;DHT22;7268;50.792;0.252;2023-08-12T14:32:53;21.50;98.40
14370;DHT22;7268;50.792;0.252;2023-08-12T14:35:21;21.00;98.80
14370;DHT22;7268;50.792;0.252;2023-08-12T14:37:48;20.50;99.90
14370;DHT22;7268;50.792;0.252;2023-08-12T14:40:14;20.60;99.90
14370;DHT22;7268;50.792;0.252;2023-08-12T14:42:41;20.40;99.90
14370;DHT22;7268;50.792;0.252;2023-08-12T14:45:09;20.30;99.90
14370;DHT22;7268;50.792;0.252;2023-08-12T14:47:36;20.10;99.90
14370;DHT22;7268;50.792;0.252;2023-08-12T14:50:03;20.30;99.90
14370;DHT22;7268;50.792;0.252;2023-08-12T14:52:30;20.70;99.90
14370;DHT22;7268;50.792;0.252;2023-08-12T14:54:57;20.50;99.90
14370;DHT22;7268;50.792;0.252;2023-08-12T14:57:24;20.40;99.90
14370;DHT22;7268;50.792;0.252;2023-08-12T14:59:51;20.30;99.90
14370;DHT22;7268;50.792;0.252;2023-08-12T15:02:21;20.20;99.90
14370;DHT22;7268;50.792;0.252;2023-08-12T15:04:51;19.90;99.90
14370;DHT22;7268;50.792;0.252;2023-08-12T15:07:19;20.00;99.90
14370;DHT22;7268;50.792;0.252;2023-08-12T15:09:48;20.20;99.90
14370;DHT22;7268;50.792;0.252;2023-08-12T15:12:14;20.20;99.90
14370;DHT22;7268;50.792;0.252;2023-08-12T15:14:41;20.10;99.90
14370;DHT22;7268;50.792;0.252;2023-08-12T15:17:08;20.40;99.90
14370;DHT22;7268;50.792;0.252;2023-08-12T15:19:35;20.40;99.90
14370;DHT22;7268;50.792;0.252;2023-08-12T15:22:02;20.70;99.90
14370;DHT22;7268;50.792;0.252;2023-08-12T15:24:29;20.90;99.90
14370;DHT22;7268;50.792;0.252;2023-08-12T15:26:56;20.90;99.90
14370;DHT22;7268;50.792;0.252;2023-08-12T15:29:23;21.20;99.70
14370;DHT22;7268;50.792;0.252;2023-08-12T15:31:50;21.00;99.50
14370;DHT22;7268;50.792;0.252;2023-08-12T15:34:17;20.60;99.50
14370;DHT22;7268;50.792;0.252;2023-08-12T15:36:44;20.00;99.90
14370;DHT22;7268;50.792;0.252;2023-08-12T15:39:11;19.70;99.90
14370;DHT22;7268;50.792;0.252;2023-08-12T15:41:42;19.70;99.90
14370;DHT22;7268;50.792;0.252;2023-08-12T15:44:10;19.60;99.90
14370;DHT22;7268;50.792;0.252;2023-08-12T15:46:38;19.40;99.90
14370;DHT22;7268;50.792;0.252;2023-08-12T15:49:05;19.30;99.90
14370;DHT22;7268;50.792;0.252;2023-08-12T15:51:34;19.40;99.90
14370;DHT22;7268;50.792;0.252;2023-08-12T15:54:01;19.50;99.90
14370;DHT22;7268;50.792;0.252;2023-08-12T15:56:28;19.60;99.90